Young Spirit — D7OH — position and weather

sailwx.info

Track history (hours):
 
Tides and Currents Weather Stations Pressure Air Temp Water Temp Dewpoint Dewpoint Depression Visibility Wind Speed Wind Dir Waves Ship Positions

Young Spirit

Last reported at 2017-Sep-08 16:24 UTC. Time now 2017-Sep-24 19:15 UTC.
Position N 29°30' W 094°52'.
Warning: this ship's position is 16 days out of date.

Length 206 m; draft 7.5 m.

Type: Cargo ship. MMSI: 440274000.

Date/timePositionNaut miles runAvg speedWind from/ knotsBaromVisibWave heightAir tempDewpointWater temp
2017-Sep-08 16:24N 29°30' W 094°52'411.0
2017-Sep-08 16:00N 29°34' W 094°55'511.1
2017-Sep-08 15:30N 29°38' W 094°58'3 6.7
2017-Sep-08 15:00N 29°41' W 094°59'3 5.2
2017-Sep-08 14:30N 29°43' W 095°01'4 7.9
2017-Sep-08 14:00N 29°46' W 095°05'3 6.2
2017-Sep-08 13:30N 29°44' W 095°08'3 5.8
2017-Sep-08 13:00N 29°45' W 095°11'3 5.1
2017-Sep-08 12:30N 29°44' W 095°14'1 2.0
2017-Sep-08 11:57N 29°43' W 095°15'1 1.7
2017-Sep-08 11:30N 29°44' W 095°16'  
2017-Sep-05 02:41N 29°44' W 095°16'0 1.1
2017-Sep-05 02:24N 29°44' W 095°15'2 4.4
2017-Sep-05 02:00N 29°44' W 095°13'3 6.1
2017-Sep-05 01:30N 29°45' W 095°10'3 6.2
2017-Sep-05 01:00N 29°44' W 095°07'3 5.2
2017-Sep-05 00:30N 29°45' W 095°04'4 7.9
2017-Sep-05 00:00N 29°42' W 095°00'510.7
2017-Sep-04 23:30N 29°37' W 094°58'612.0
2017-Sep-04 23:00N 29°32' W 094°54'612.0
2017-Sep-04 22:30N 29°27' W 094°51'612.1
2017-Sep-04 22:00N 29°21' W 094°47'  
2017-Sep-01 09:02N 29°11' W 094°40'0 0.0
2017-Sep-01 08:59N 29°11' W 094°40'0 0.0
2017-Sep-01 07:17N 29°11' W 094°40'0 0.0
2017-Sep-01 06:56N 29°11' W 094°40'0 0.0
2017-Sep-01 06:29N 29°11' W 094°40'0 0.0
2017-Sep-01 05:56N 29°11' W 094°40'0 0.0
2017-Sep-01 05:29N 29°11' W 094°40'0 0.0
2017-Sep-01 04:59N 29°11' W 094°40'0 0.0
2017-Sep-01 04:26N 29°11' W 094°40'0 0.0
2017-Sep-01 03:56N 29°11' W 094°40'0 0.0
2017-Sep-01 03:26N 29°11' W 094°40'0 0.0
2017-Sep-01 02:59N 29°11' W 094°40'  
Track history (hours):
 
Tides and Currents Weather Stations Pressure Air Temp Water Temp Dewpoint Dewpoint Depression Visibility Wind Speed Wind Dir Waves Ship Positions

Young Spirit

Last reported at 2017-Sep-08 16:24 UTC. Time now 2017-Sep-24 19:15 UTC.
Position N 29°30' W 094°52'.
Warning: this ship's position is 16 days out of date.

Length 206 m; draft 7.5 m.

Type: Cargo ship. MMSI: 440274000.

Date/timePositionNaut miles runAvg speedWind from/ knotsBaromVisibWave heightAir tempDewpointWater temp
2017-Sep-08 16:24N 29°30' W 094°52'411.0
2017-Sep-08 16:00N 29°34' W 094°55'511.1
2017-Sep-08 15:30N 29°38' W 094°58'3 6.7
2017-Sep-08 15:00N 29°41' W 094°59'3 5.2
2017-Sep-08 14:30N 29°43' W 095°01'4 7.9
2017-Sep-08 14:00N 29°46' W 095°05'3 6.2
2017-Sep-08 13:30N 29°44' W 095°08'3 5.8
2017-Sep-08 13:00N 29°45' W 095°11'3 5.1
2017-Sep-08 12:30N 29°44' W 095°14'1 2.0
2017-Sep-08 11:57N 29°43' W 095°15'1 1.7
2017-Sep-08 11:30N 29°44' W 095°16'  
2017-Sep-05 02:41N 29°44' W 095°16'0 1.1
2017-Sep-05 02:24N 29°44' W 095°15'2 4.4
2017-Sep-05 02:00N 29°44' W 095°13'3 6.1
2017-Sep-05 01:30N 29°45' W 095°10'3 6.2
2017-Sep-05 01:00N 29°44' W 095°07'3 5.2
2017-Sep-05 00:30N 29°45' W 095°04'4 7.9
2017-Sep-05 00:00N 29°42' W 095°00'510.7
2017-Sep-04 23:30N 29°37' W 094°58'612.0
2017-Sep-04 23:00N 29°32' W 094°54'612.0
2017-Sep-04 22:30N 29°27' W 094°51'612.1
2017-Sep-04 22:00N 29°21' W 094°47'  
2017-Sep-01 09:02N 29°11' W 094°40'0 0.0
2017-Sep-01 08:59N 29°11' W 094°40'0 0.0
2017-Sep-01 07:17N 29°11' W 094°40'0 0.0
2017-Sep-01 06:56N 29°11' W 094°40'0 0.0
2017-Sep-01 06:29N 29°11' W 094°40'0 0.0
2017-Sep-01 05:56N 29°11' W 094°40'0 0.0
2017-Sep-01 05:29N 29°11' W 094°40'0 0.0
2017-Sep-01 04:59N 29°11' W 094°40'0 0.0
2017-Sep-01 04:26N 29°11' W 094°40'0 0.0
2017-Sep-01 03:56N 29°11' W 094°40'0 0.0
2017-Sep-01 03:26N 29°11' W 094°40'0 0.0
2017-Sep-01 02:59N 29°11' W 094°40'  

Dump ship's entire track history